sensor_id;sensor_type;location;lat;lon;timestamp;pressure;altitude;pressure_sealevel;temperature;humidity
19751;BME280;4663;49.120;9.730;2022-11-20T00:01:41;97548.94;;;-0.04;96.98
19751;BME280;4663;49.120;9.730;2022-11-20T00:04:08;97550.88;;;-0.06;97.18
19751;BME280;4663;49.120;9.730;2022-11-20T00:06:33;97552.84;;;-0.08;97.29
19751;BME280;4663;49.120;9.730;2022-11-20T00:08:59;97550.47;;;-0.23;97.57
19751;BME280;4663;49.120;9.730;2022-11-20T00:11:27;97549.94;;;-0.17;97.46
19751;BME280;4663;49.120;9.730;2022-11-20T00:13:56;97547.19;;;-0.15;97.64
19751;BME280;4663;49.120;9.730;2022-11-20T00:16:24;97547.88;;;-0.34;97.11
19751;BME280;4663;49.120;9.730;2022-11-20T00:18:50;97550.34;;;-0.43;97.90
19751;BME280;4663;49.120;9.730;2022-11-20T00:21:24;97548.72;;;-0.34;97.69
19751;BME280;4663;49.120;9.730;2022-11-20T00:23:51;97537.97;;;-0.53;98.10
19751;BME280;4663;49.120;9.730;2022-11-20T00:26:19;97536.75;;;-0.49;97.89
19751;BME280;4663;49.120;9.730;2022-11-20T00:28:50;97544.25;;;-0.33;97.43
19751;BME280;4663;49.120;9.730;2022-11-20T00:31:16;97546.53;;;-0.28;97.08
19751;BME280;4663;49.120;9.730;2022-11-20T00:33:42;97541.53;;;-0.22;97.10
19751;BME280;4663;49.120;9.730;2022-11-20T00:36:10;97533.22;;;-0.17;96.18
19751;BME280;4663;49.120;9.730;2022-11-20T00:38:36;97535.53;;;-0.24;96.45
19751;BME280;4663;49.120;9.730;2022-11-20T00:41:04;97541.53;;;-0.22;97.11
19751;BME280;4663;49.120;9.730;2022-11-20T00:43:30;97543.88;;;-0.07;97.47
19751;BME280;4663;49.120;9.730;2022-11-20T00:46:04;97544.81;;;-0.18;97.49
19751;BME280;4663;49.120;9.730;2022-11-20T00:48:30;97530.63;;;-0.07;97.04
19751;BME280;4663;49.120;9.730;2022-11-20T00:50:55;97540.56;;;0.01;97.16
19751;BME280;4663;49.120;9.730;2022-11-20T00:53:21;97537.91;;;0.01;96.48
19751;BME280;4663;49.120;9.730;2022-11-20T00:55:58;97545.38;;;0.07;96.59
19751;BME280;4663;49.120;9.730;2022-11-20T00:58:25;97543.47;;;-0.03;96.62
19751;BME280;4663;49.120;9.730;2022-11-20T01:00:50;97542.84;;;0.05;97.03
19751;BME280;4663;49.120;9.730;2022-11-20T01:03:17;97537.22;;;-0.01;96.54
19751;BME280;4663;49.120;9.730;2022-11-20T01:05:42;97542.34;;;-0.10;97.03
19751;BME280;4663;49.120;9.730;2022-11-20T01:08:08;97537.59;;;-0.06;96.91
19751;BME280;4663;49.120;9.730;2022-11-20T01:10:33;97546.66;;;-0.09;97.20
19751;BME280;4663;49.120;9.730;2022-11-20T01:12:59;97543.75;;;-0.06;96.80
19751;BME280;4663;49.120;9.730;2022-11-20T01:15:47;97544.22;;;-0.00;97.25
19751;BME280;4663;49.120;9.730;2022-11-20T01:18:12;97552.03;;;0.01;97.11
19751;BME280;4663;49.120;9.730;2022-11-20T01:20:38;97555.19;;;-0.05;97.77
19751;BME280;4663;49.120;9.730;2022-11-20T01:23:03;97548.22;;;-0.06;97.32
19751;BME280;4663;49.120;9.730;2022-11-20T01:25:29;97551.66;;;0.06;96.83
19751;BME280;4663;49.120;9.730;2022-11-20T01:27:54;97559.75;;;0.04;96.30
19751;BME280;4663;49.120;9.730;2022-11-20T01:30:20;97556.06;;;0.17;96.69
19751;BME280;4663;49.120;9.730;2022-11-20T01:32:45;97560.44;;;0.06;96.18
19751;BME280;4663;49.120;9.730;2022-11-20T01:35:10;97548.22;;;0.15;96.26
19751;BME280;4663;49.120;9.730;2022-11-20T01:37:36;97555.06;;;0.18;96.57
19751;BME280;4663;49.120;9.730;2022-11-20T01:40:01;97545.31;;;0.18;96.87
19751;BME280;4663;49.120;9.730;2022-11-20T01:48:06;97539.41;;;0.15;97.81
19751;BME280;4663;49.120;9.730;2022-11-20T01:50:31;97547.72;;;0.21;97.33
19751;BME280;4663;49.120;9.730;2022-11-20T01:53:05;97533.44;;;0.22;96.94
19751;BME280;4663;49.120;9.730;2022-11-20T01:55:36;97532.47;;;0.24;96.90
19751;BME280;4663;49.120;9.730;2022-11-20T01:58:02;97527.34;;;0.32;97.00
19751;BME280;4663;49.120;9.730;2022-11-20T02:00:28;97531.28;;;0.38;97.27
19751;BME280;4663;49.120;9.730;2022-11-20T02:02:57;97528.78;;;0.46;96.74
19751;BME280;4663;49.120;9.730;2022-11-20T02:05:35;97524.59;;;0.43;96.94
19751;BME280;4663;49.120;9.730;2022-11-20T02:08:04;97523.69;;;0.33;97.27
19751;BME280;4663;49.120;9.730;2022-11-20T02:10:30;97523.06;;;0.41;97.20
19751;BME280;4663;49.120;9.730;2022-11-20T02:12:57;97515.59;;;0.34;97.62
19751;BME280;4663;49.120;9.730;2022-11-20T02:15:42;97518.31;;;0.44;97.18
19751;BME280;4663;49.120;9.730;2022-11-20T02:18:09;97514.94;;;0.42;97.27
19751;BME280;4663;49.120;9.730;2022-11-20T02:20:35;97518.97;;;0.37;97.84
19751;BME280;4663;49.120;9.730;2022-11-20T02:23:05;97519.03;;;0.46;97.59
19751;BME280;4663;49.120;9.730;2022-11-20T02:25:35;97526.56;;;0.51;97.77
19751;BME280;4663;49.120;9.730;2022-11-20T02:28:02;97522.06;;;0.42;97.85
19751;BME280;4663;49.120;9.730;2022-11-20T02:30:28;97528.72;;;0.57;97.92
19751;BME280;4663;49.120;9.730;2022-11-20T02:32:53;97519.53;;;0.40;98.85
19751;BME280;4663;49.120;9.730;2022-11-20T02:37:45;97521.13;;;0.53;99.66
19751;BME280;4663;49.120;9.730;2022-11-20T02:40:13;97519.06;;;0.56;100.00
19751;BME280;4663;49.120;9.730;2022-11-20T02:42:38;97515.31;;;0.69;100.00
19751;BME280;4663;49.120;9.730;2022-11-20T02:45:04;97516.34;;;0.78;100.00
19751;BME280;4663;49.120;9.730;2022-11-20T02:47:30;97508.81;;;0.93;100.00
19751;BME280;4663;49.120;9.730;2022-11-20T02:49:56;97505.75;;;0.97;100.00
19751;BME280;4663;49.120;9.730;2022-11-20T02:52:21;97509.50;;;0.95;100.00
19751;BME280;4663;49.120;9.730;2022-11-20T02:54:47;97509.97;;;1.10;100.00
19751;BME280;4663;49.120;9.730;2022-11-20T02:57:12;97510.53;;;1.13;100.00
19751;BME280;4663;49.120;9.730;2022-11-20T02:59:38;97508.44;;;1.07;100.00
19751;BME280;4663;49.120;9.730;2022-11-20T03:02:03;97506.88;;;1.15;100.00
19751;BME280;4663;49.120;9.730;2022-11-20T03:04:30;97507.44;;;1.08;100.00
19751;BME280;4663;49.120;9.730;2022-11-20T03:06:55;97507.72;;;1.05;100.00
19751;BME280;4663;49.120;9.730;2022-11-20T03:09:20;97517.41;;;1.36;100.00
19751;BME280;4663;49.120;9.730;2022-11-20T03:11:46;97515.31;;;1.40;100.00
19751;BME280;4663;49.120;9.730;2022-11-20T03:14:11;97504.53;;;1.31;100.00
19751;BME280;4663;49.120;9.730;2022-11-20T03:16:37;97499.06;;;1.23;100.00
19751;BME280;4663;49.120;9.730;2022-11-20T03:19:02;97498.50;;;1.49;100.00
19751;BME280;4663;49.120;9.730;2022-11-20T03:21:27;97506.66;;;1.57;100.00
19751;BME280;4663;49.120;9.730;2022-11-20T03:23:53;97506.09;;;1.63;99.74
19751;BME280;4663;49.120;9.730;2022-11-20T03:26:21;97505.38;;;1.61;99.89
19751;BME280;4663;49.120;9.730;2022-11-20T03:28:48;97505.53;;;1.60;99.82
19751;BME280;4663;49.120;9.730;2022-11-20T03:31:15;97498.50;;;1.49;100.00
19751;BME280;4663;49.120;9.730;2022-11-20T03:33:42;97493.91;;;1.51;99.85
19751;BME280;4663;49.120;9.730;2022-11-20T03:36:10;97499.66;;;1.56;100.00
19751;BME280;4663;49.120;9.730;2022-11-20T03:38:36;97505.53;;;1.70;99.76
19751;BME280;4663;49.120;9.730;2022-11-20T03:41:10;97504.41;;;1.62;99.93
19751;BME280;4663;49.120;9.730;2022-11-20T03:43:35;97499.66;;;1.76;99.85
19751;BME280;4663;49.120;9.730;2022-11-20T03:46:02;97491.22;;;1.91;98.58
19751;BME280;4663;49.120;9.730;2022-11-20T03:48:27;97497.94;;;1.95;98.12
19751;BME280;4663;49.120;9.730;2022-11-20T03:51:05;97491.66;;;1.86;98.34
19751;BME280;4663;49.120;9.730;2022-11-20T03:53:31;97491.25;;;1.81;98.50
19751;BME280;4663;49.120;9.730;2022-11-20T03:55:56;97492.91;;;1.82;98.89
19751;BME280;4663;49.120;9.730;2022-11-20T03:58:22;97493.91;;;1.71;98.96
19751;BME280;4663;49.120;9.730;2022-11-20T04:00:47;97497.97;;;1.85;98.76
19751;BME280;4663;49.120;9.730;2022-11-20T04:03:12;97488.13;;;1.95;98.44
19751;BME280;4663;49.120;9.730;2022-11-20T04:05:38;97494.31;;;1.76;98.37
19751;BME280;4663;49.120;9.730;2022-11-20T04:08:03;97494.72;;;1.81;98.51
19751;BME280;4663;49.120;9.730;2022-11-20T04:10:28;97495.69;;;2.00;98.32
19751;BME280;4663;49.120;9.730;2022-11-20T04:12:54;97491.50;;;1.87;98.86
19751;BME280;4663;49.120;9.730;2022-11-20T04:15:19;97496.28;;;1.74;99.38
19751;BME280;4663;49.120;9.730;2022-11-20T04:17:47;97486.97;;;1.98;98.87
19751;BME280;4663;49.120;9.730;2022-11-20T04:20:12;97485.72;;;2.02;98.79
19751;BME280;4663;49.120;9.730;2022-11-20T04:22:38;97486.72;;;1.91;98.95
19751;BME280;4663;49.120;9.730;2022-11-20T04:25:03;97487.97;;;1.97;99.23
19751;BME280;4663;49.120;9.730;2022-11-20T04:27:30;97489.47;;;2.09;99.34
19751;BME280;4663;49.120;9.730;2022-11-20T04:29:56;97485.00;;;2.10;98.76
19751;BME280;4663;49.120;9.730;2022-11-20T04:32:21;97494.72;;;1.91;99.44
19751;BME280;4663;49.120;9.730;2022-11-20T04:34:46;97489.38;;;2.01;98.75
19751;BME280;4663;49.120;9.730;2022-11-20T04:37:12;97480.06;;;2.15;98.77
19751;BME280;4663;49.120;9.730;2022-11-20T04:39:37;97494.03;;;1.89;99.13
19751;BME280;4663;49.120;9.730;2022-11-20T04:42:02;97494.84;;;1.89;99.86
19751;BME280;4663;49.120;9.730;2022-11-20T04:44:47;97499.88;;;1.93;99.47
19751;BME280;4663;49.120;9.730;2022-11-20T04:47:12;97492.31;;;1.88;99.48
19751;BME280;4663;49.120;9.730;2022-11-20T04:49:37;97486.84;;;1.99;98.76
19751;BME280;4663;49.120;9.730;2022-11-20T04:52:03;97485.66;;;2.22;97.90
19751;BME280;4663;49.120;9.730;2022-11-20T04:54:28;97496.56;;;1.91;99.38
19751;BME280;4663;49.120;9.730;2022-11-20T04:56:53;97500.13;;;2.09;98.14
19751;BME280;4663;49.120;9.730;2022-11-20T04:59:19;97493.44;;;1.95;97.68
19751;BME280;4663;49.120;9.730;2022-11-20T05:01:44;97490.31;;;2.10;97.17
19751;BME280;4663;49.120;9.730;2022-11-20T05:04:09;97488.34;;;2.12;96.95
19751;BME280;4663;49.120;9.730;2022-11-20T05:06:35;97488.22;;;2.03;97.51
19751;BME280;4663;49.120;9.730;2022-11-20T05:09:00;97484.28;;;2.08;97.33
19751;BME280;4663;49.120;9.730;2022-11-20T05:11:26;97490.47;;;2.08;97.54
19751;BME280;4663;49.120;9.730;2022-11-20T05:14:00;97490.88;;;2.13;96.89
19751;BME280;4663;49.120;9.730;2022-11-20T05:16:25;97485.53;;;2.13;97.18
19751;BME280;4663;49.120;9.730;2022-11-20T05:18:52;97487.53;;;2.11;97.38
19751;BME280;4663;49.120;9.730;2022-11-20T05:21:18;97481.03;;;2.24;96.37
19751;BME280;4663;49.120;9.730;2022-11-20T05:23:45;97489.34;;;2.11;97.24
19751;BME280;4663;49.120;9.730;2022-11-20T05:26:18;97483.63;;;2.06;96.84
19751;BME280;4663;49.120;9.730;2022-11-20T05:28:45;97491.19;;;2.00;97.09
19751;BME280;4663;49.120;9.730;2022-11-20T05:31:19;97485.91;;;1.91;97.36
19751;BME280;4663;49.120;9.730;2022-11-20T05:33:45;97479.69;;;2.00;97.12
19751;BME280;4663;49.120;9.730;2022-11-20T05:36:12;97483.63;;;1.96;96.93
19751;BME280;4663;49.120;9.730;2022-11-20T05:38:38;97489.50;;;1.99;96.90
19751;BME280;4663;49.120;9.730;2022-11-20T05:41:16;97483.03;;;2.02;96.67
19751;BME280;4663;49.120;9.730;2022-11-20T05:43:43;97482.38;;;1.90;96.64
19751;BME280;4663;49.120;9.730;2022-11-20T05:46:11;97482.69;;;1.77;97.18
19751;BME280;4663;49.120;9.730;2022-11-20T05:48:37;97478.84;;;1.99;97.06
19751;BME280;4663;49.120;9.730;2022-11-20T05:51:04;97479.41;;;2.03;96.72
19751;BME280;4663;49.120;9.730;2022-11-20T05:53:32;97481.41;;;1.91;96.94
19751;BME280;4663;49.120;9.730;2022-11-20T05:56:08;97482.22;;;2.01;96.83
19751;BME280;4663;49.120;9.730;2022-11-20T05:58:35;97492.66;;;1.75;97.88
19751;BME280;4663;49.120;9.730;2022-11-20T06:01:15;97493.03;;;1.90;97.67
19751;BME280;4663;49.120;9.730;2022-11-20T06:03:42;97486.97;;;1.98;96.98
19751;BME280;4663;49.120;9.730;2022-11-20T06:06:11;97481.13;;;1.84;97.30
19751;BME280;4663;49.120;9.730;2022-11-20T06:08:36;97481.28;;;1.73;97.70
19751;BME280;4663;49.120;9.730;2022-11-20T06:11:06;97483.41;;;1.79;97.99
19751;BME280;4663;49.120;9.730;2022-11-20T06:13:32;97483.66;;;1.86;97.78
19751;BME280;4663;49.120;9.730;2022-11-20T06:15:58;97482.00;;;1.85;98.11
19751;BME280;4663;49.120;9.730;2022-11-20T06:18:26;97482.38;;;2.00;97.89
19751;BME280;4663;49.120;9.730;2022-11-20T06:20:59;97487.31;;;1.85;97.49
19751;BME280;4663;49.120;9.730;2022-11-20T06:23:24;97481.41;;;1.91;98.21
19751;BME280;4663;49.120;9.730;2022-11-20T06:25:50;97478.75;;;1.81;97.53
19751;BME280;4663;49.120;9.730;2022-11-20T06:28:15;97488.25;;;1.94;98.02
19751;BME280;4663;49.120;9.730;2022-11-20T06:30:44;97479.59;;;1.82;98.13
19751;BME280;4663;49.120;9.730;2022-11-20T06:33:10;97483.91;;;1.93;97.97
19751;BME280;4663;49.120;9.730;2022-11-20T06:35:35;97482.28;;;1.72;98.29
19751;BME280;4663;49.120;9.730;2022-11-20T06:38:00;97484.78;;;1.83;98.60
19751;BME280;4663;49.120;9.730;2022-11-20T06:40:26;97488.72;;;1.69;99.03
19751;BME280;4663;49.120;9.730;2022-11-20T06:42:53;97489.94;;;1.95;98.82
19751;BME280;4663;49.120;9.730;2022-11-20T06:45:18;97494.03;;;1.89;98.33
19751;BME280;4663;49.120;9.730;2022-11-20T06:47:44;97499.34;;;1.99;98.46
19751;BME280;4663;49.120;9.730;2022-11-20T06:50:09;97504.50;;;2.10;97.54
19751;BME280;4663;49.120;9.730;2022-11-20T06:52:35;97505.75;;;2.06;97.47
19751;BME280;4663;49.120;9.730;2022-11-20T06:55:00;97515.53;;;2.15;97.38
19751;BME280;4663;49.120;9.730;2022-11-20T06:57:25;97521.56;;;2.08;97.19
19751;BME280;4663;49.120;9.730;2022-11-20T06:59:50;97509.38;;;2.05;97.92
19751;BME280;4663;49.120;9.730;2022-11-20T07:02:16;97507.97;;;2.11;97.69
19751;BME280;4663;49.120;9.730;2022-11-20T07:04:41;97511.03;;;2.16;97.10
19751;BME280;4663;49.120;9.730;2022-11-20T07:07:06;97516.00;;;2.01;97.77
19751;BME280;4663;49.120;9.730;2022-11-20T07:09:33;97514.84;;;2.03;97.43
19751;BME280;4663;49.120;9.730;2022-11-20T07:11:59;97522.03;;;1.93;98.43
19751;BME280;4663;49.120;9.730;2022-11-20T07:14:24;97509.38;;;2.05;98.17
19751;BME280;4663;49.120;9.730;2022-11-20T07:16:49;97519.06;;;2.06;97.87
19751;BME280;4663;49.120;9.730;2022-11-20T07:19:15;97525.38;;;2.05;97.95
19751;BME280;4663;49.120;9.730;2022-11-20T07:21:40;97526.19;;;2.15;97.48
19751;BME280;4663;49.120;9.730;2022-11-20T07:24:05;97523.81;;;2.12;97.08
19751;BME280;4663;49.120;9.730;2022-11-20T07:26:31;97528.16;;;2.13;96.83
19751;BME280;4663;49.120;9.730;2022-11-20T07:28:57;97522.19;;;1.92;97.01
19751;BME280;4663;49.120;9.730;2022-11-20T07:31:22;97529.16;;;2.02;97.55
19751;BME280;4663;49.120;9.730;2022-11-20T07:33:48;97528.59;;;2.09;97.57
19751;BME280;4663;49.120;9.730;2022-11-20T07:36:13;97523.81;;;2.12;96.95
19751;BME280;4663;49.120;9.730;2022-11-20T07:38:39;97515.81;;;2.12;96.71
19751;BME280;4663;49.120;9.730;2022-11-20T07:41:04;97530.41;;;2.08;96.92
19751;BME280;4663;49.120;9.730;2022-11-20T07:43:30;97528.16;;;2.13;97.59
19751;BME280;4663;49.120;9.730;2022-11-20T07:45:56;97529.28;;;2.11;97.59
19751;BME280;4663;49.120;9.730;2022-11-20T07:48:22;97533.22;;;2.07;98.19
19751;BME280;4663;49.120;9.730;2022-11-20T07:50:48;97534.06;;;2.07;98.14
19751;BME280;4663;49.120;9.730;2022-11-20T07:53:13;97540.50;;;2.14;97.77
19751;BME280;4663;49.120;9.730;2022-11-20T07:55:39;97535.47;;;2.11;97.62
19751;BME280;4663;49.120;9.730;2022-11-20T07:58:04;97536.31;;;2.02;96.99
19751;BME280;4663;49.120;9.730;2022-11-20T08:00:30;97542.44;;;2.22;96.79
19751;BME280;4663;49.120;9.730;2022-11-20T08:02:55;97533.16;;;2.26;96.51
19751;BME280;4663;49.120;9.730;2022-11-20T08:05:21;97528.38;;;2.30;95.92
19751;BME280;4663;49.120;9.730;2022-11-20T08:07:46;97531.03;;;2.30;96.17
19751;BME280;4663;49.120;9.730;2022-11-20T08:10:13;97524.75;;;2.31;95.65
19751;BME280;4663;49.120;9.730;2022-11-20T08:12:47;97526.06;;;2.17;95.91
19751;BME280;4663;49.120;9.730;2022-11-20T08:15:32;97531.13;;;2.10;96.57
19751;BME280;4663;49.120;9.730;2022-11-20T08:18:11;97523.97;;;2.01;96.74
19751;BME280;4663;49.120;9.730;2022-11-20T08:20:37;97532.66;;;2.13;96.27
19751;BME280;4663;49.120;9.730;2022-11-20T08:23:07;97525.34;;;2.15;96.21
19751;BME280;4663;49.120;9.730;2022-11-20T08:25:34;97525.03;;;2.28;96.48
19751;BME280;4663;49.120;9.730;2022-11-20T08:28:01;97535.47;;;2.11;96.57
19751;BME280;4663;49.120;9.730;2022-11-20T08:30:28;97529.44;;;1.99;96.14
19751;BME280;4663;49.120;9.730;2022-11-20T08:32:53;97532.47;;;2.34;95.98
19751;BME280;4663;49.120;9.730;2022-11-20T08:35:20;97535.38;;;2.41;96.50
19751;BME280;4663;49.120;9.730;2022-11-20T08:37:46;97535.34;;;2.51;96.28
19751;BME280;4663;49.120;9.730;2022-11-20T08:40:12;97532.25;;;2.46;96.04
19751;BME280;4663;49.120;9.730;2022-11-20T08:42:46;97542.66;;;2.39;95.95
19751;BME280;4663;49.120;9.730;2022-11-20T08:45:11;97541.53;;;2.41;95.77
19751;BME280;4663;49.120;9.730;2022-11-20T08:47:36;97543.75;;;2.56;96.84
19751;BME280;4663;49.120;9.730;2022-11-20T08:50:02;97537.56;;;2.56;96.75
19751;BME280;4663;49.120;9.730;2022-11-20T08:52:27;97539.56;;;2.44;96.09
19751;BME280;4663;49.120;9.730;2022-11-20T08:54:53;97546.00;;;2.51;96.46
19751;BME280;4663;49.120;9.730;2022-11-20T08:57:18;97554.94;;;2.60;96.20
19751;BME280;4663;49.120;9.730;2022-11-20T08:59:43;97543.09;;;2.44;95.99
19751;BME280;4663;49.120;9.730;2022-11-20T09:02:09;97546.25;;;2.58;96.02
19751;BME280;4663;49.120;9.730;2022-11-20T09:04:34;97541.75;;;2.68;95.88
19751;BME280;4663;49.120;9.730;2022-11-20T09:07:00;97553.41;;;2.57;96.79
19751;BME280;4663;49.120;9.730;2022-11-20T09:09:25;97550.41;;;2.70;96.11
19751;BME280;4663;49.120;9.730;2022-11-20T09:11:51;97542.84;;;2.65;95.86
19751;BME280;4663;49.120;9.730;2022-11-20T09:14:16;97550.69;;;2.67;96.03
19751;BME280;4663;49.120;9.730;2022-11-20T09:16:41;97545.94;;;2.71;96.34
19751;BME280;4663;49.120;9.730;2022-11-20T09:19:07;97555.13;;;2.86;96.15
19751;BME280;4663;49.120;9.730;2022-11-20T09:21:32;97546.44;;;2.84;95.07
19751;BME280;4663;49.120;9.730;2022-11-20T09:23:58;97545.47;;;3.03;95.51
19751;BME280;4663;49.120;9.730;2022-11-20T09:26:23;97546.63;;;3.01;94.68
19751;BME280;4663;49.120;9.730;2022-11-20T09:28:48;97551.28;;;2.99;94.90
19751;BME280;4663;49.120;9.730;2022-11-20T09:31:21;97549.75;;;2.96;95.41
19751;BME280;4663;49.120;9.730;2022-11-20T09:33:47;97547.69;;;3.08;96.02
19751;BME280;4663;49.120;9.730;2022-11-20T09:36:12;97544.00;;;2.91;95.69
19751;BME280;4663;49.120;9.730;2022-11-20T09:38:38;97555.16;;;3.04;95.78
19751;BME280;4663;49.120;9.730;2022-11-20T09:41:05;97547.03;;;3.06;95.20
19751;BME280;4663;49.120;9.730;2022-11-20T09:51:27;97551.69;;;3.22;95.99
19751;BME280;4663;49.120;9.730;2022-11-20T09:56:37;97554.91;;;3.26;95.86
19751;BME280;4663;49.120;9.730;2022-11-20T09:59:06;97551.19;;;3.37;95.46
19751;BME280;4663;49.120;9.730;2022-11-20T10:01:35;97553.19;;;3.53;94.84
19751;BME280;4663;49.120;9.730;2022-11-20T10:04:15;97550.38;;;3.73;94.80
19751;BME280;4663;49.120;9.730;2022-11-20T10:09:37;97554.66;;;3.83;95.42
19751;BME280;4663;49.120;9.730;2022-11-20T10:13:05;97555.88;;;3.89;94.89
19751;BME280;4663;49.120;9.730;2022-11-20T10:15:17;97544.34;;;3.89;95.18
19751;BME280;4663;49.120;9.730;2022-11-20T10:17:55;97550.31;;;4.09;95.07
19751;BME280;4663;49.120;9.730;2022-11-20T10:31:44;97542.88;;;3.94;93.66
19751;BME280;4663;49.120;9.730;2022-11-20T10:37:23;97543.06;;;3.75;93.94
19751;BME280;4663;49.120;9.730;2022-11-20T10:39:56;97550.69;;;3.69;93.09
19751;BME280;4663;49.120;9.730;2022-11-20T10:42:46;97551.00;;;3.66;92.53
19751;BME280;4663;49.120;9.730;2022-11-20T10:45:18;97546.94;;;3.80;93.68
19751;BME280;4663;49.120;9.730;2022-11-20T10:47:46;97549.53;;;3.90;94.97
19751;BME280;4663;49.120;9.730;2022-11-20T10:50:18;97541.28;;;4.02;95.46
19751;BME280;4663;49.120;9.730;2022-11-20T10:53:15;97543.06;;;4.19;94.24
19751;BME280;4663;49.120;9.730;2022-11-20T10:55:47;97539.41;;;4.02;94.58
19751;BME280;4663;49.120;9.730;2022-11-20T11:01:16;97534.22;;;4.01;95.41
19751;BME280;4663;49.120;9.730;2022-11-20T11:03:42;97533.25;;;4.02;95.33
19751;BME280;4663;49.120;9.730;2022-11-20T11:06:36;97531.75;;;4.26;95.29
19751;BME280;4663;49.120;9.730;2022-11-20T11:09:15;97524.75;;;4.06;93.29
19751;BME280;4663;49.120;9.730;2022-11-20T11:11:41;97530.94;;;4.07;93.19
19751;BME280;4663;49.120;9.730;2022-11-20T11:16:32;97526.47;;;4.34;93.91
19751;BME280;4663;49.120;9.730;2022-11-20T11:19:12;97527.31;;;4.43;93.21
19751;BME280;4663;49.120;9.730;2022-11-20T11:21:37;97531.81;;;4.34;93.85
19751;BME280;4663;49.120;9.730;2022-11-20T11:24:18;97520.91;;;4.27;92.58
19751;BME280;4663;49.120;9.730;2022-11-20T11:27:00;97521.22;;;3.98;93.54
19751;BME280;4663;49.120;9.730;2022-11-20T11:29:31;97518.25;;;4.09;93.57
19751;BME280;4663;49.120;9.730;2022-11-20T11:32:11;97514.81;;;3.90;93.80
19751;BME280;4663;49.120;9.730;2022-11-20T11:34:37;97504.78;;;3.92;93.65
19751;BME280;4663;49.120;9.730;2022-11-20T11:37:03;97507.47;;;3.92;93.51
19751;BME280;4663;49.120;9.730;2022-11-20T11:39:31;97502.88;;;3.58;94.58
19751;BME280;4663;49.120;9.730;2022-11-20T11:42:00;97497.91;;;3.63;94.53
19751;BME280;4663;49.120;9.730;2022-11-20T11:44:32;97502.63;;;3.69;96.17
19751;BME280;4663;49.120;9.730;2022-11-20T11:47:23;97496.88;;;3.82;95.84
19751;BME280;4663;49.120;9.730;2022-11-20T11:50:01;97492.69;;;3.80;93.03
19751;BME280;4663;49.120;9.730;2022-11-20T11:52:28;97494.06;;;3.84;93.75
19751;BME280;4663;49.120;9.730;2022-11-20T11:54:58;97496.47;;;3.95;92.71
19751;BME280;4663;49.120;9.730;2022-11-20T11:57:42;97488.00;;;4.00;92.83
19751;BME280;4663;49.120;9.730;2022-11-20T12:05:12;97488.50;;;4.04;92.65
19751;BME280;4663;49.120;9.730;2022-11-20T12:07:47;97481.69;;;3.83;92.20
19751;BME280;4663;49.120;9.730;2022-11-20T12:10:23;97476.94;;;3.95;92.42
19751;BME280;4663;49.120;9.730;2022-11-20T12:15:48;97474.66;;;4.00;92.73
19751;BME280;4663;49.120;9.730;2022-11-20T12:18:17;97477.63;;;4.24;91.67
19751;BME280;4663;49.120;9.730;2022-11-20T12:33:25;97477.66;;;4.32;91.98
19751;BME280;4663;49.120;9.730;2022-11-20T12:44:57;97464.31;;;4.40;91.87
19751;BME280;4663;49.120;9.730;2022-11-20T13:07:05;97467.28;;;5.07;90.01
19751;BME280;4663;49.120;9.730;2022-11-20T13:09:32;97464.69;;;4.89;88.94
19751;BME280;4663;49.120;9.730;2022-11-20T13:15:14;97458.63;;;4.78;86.89
19751;BME280;4663;49.120;9.730;2022-11-20T13:17:49;97463.09;;;4.61;88.02
19751;BME280;4663;49.120;9.730;2022-11-20T13:20:18;97462.03;;;4.45;88.36
19751;BME280;4663;49.120;9.730;2022-11-20T13:22:45;97463.22;;;4.51;88.02
19751;BME280;4663;49.120;9.730;2022-11-20T13:25:32;97464.09;;;4.68;87.73
19751;BME280;4663;49.120;9.730;2022-11-20T13:28:25;97464.88;;;4.44;88.25
19751;BME280;4663;49.120;9.730;2022-11-20T13:30:52;97457.59;;;4.28;88.14
19751;BME280;4663;49.120;9.730;2022-11-20T13:33:32;97458.41;;;3.93;90.17
19751;BME280;4663;49.120;9.730;2022-11-20T13:36:05;97461.38;;;4.17;88.84
19751;BME280;4663;49.120;9.730;2022-11-20T13:39:02;97460.69;;;4.41;91.16
19751;BME280;4663;49.120;9.730;2022-11-20T13:46:42;97440.94;;;4.34;89.60
19751;BME280;4663;49.120;9.730;2022-11-20T13:49:16;97447.06;;;4.61;89.09
19751;BME280;4663;49.120;9.730;2022-11-20T13:51:48;97449.53;;;4.19;87.29
19751;BME280;4663;49.120;9.730;2022-11-20T13:54:43;97451.56;;;4.60;88.54
19751;BME280;4663;49.120;9.730;2022-11-20T13:57:25;97449.47;;;4.81;91.30
19751;BME280;4663;49.120;9.730;2022-11-20T14:00:15;97446.25;;;4.69;87.25
19751;BME280;4663;49.120;9.730;2022-11-20T14:02:41;97453.81;;;4.90;87.01
19751;BME280;4663;49.120;9.730;2022-11-20T14:05:17;97452.22;;;4.63;85.74
19751;BME280;4663;49.120;9.730;2022-11-20T14:07:44;97444.00;;;4.56;86.98
19751;BME280;4663;49.120;9.730;2022-11-20T14:10:20;97444.28;;;4.79;88.49
19751;BME280;4663;49.120;9.730;2022-11-20T14:12:47;97439.66;;;4.46;86.10
19751;BME280;4663;49.120;9.730;2022-11-20T14:15:25;97434.47;;;4.45;85.92
19751;BME280;4663;49.120;9.730;2022-11-20T14:17:51;97447.47;;;4.40;87.68
19751;BME280;4663;49.120;9.730;2022-11-20T14:20:16;97444.13;;;4.38;86.28
19751;BME280;4663;49.120;9.730;2022-11-20T14:22:49;97447.66;;;4.46;89.10
19751;BME280;4663;49.120;9.730;2022-11-20T14:27:42;97453.28;;;4.35;88.81
19751;BME280;4663;49.120;9.730;2022-11-20T14:30:20;97450.63;;;4.35;91.16
19751;BME280;4663;49.120;9.730;2022-11-20T14:32:47;97438.59;;;4.39;91.39
19751;BME280;4663;49.120;9.730;2022-11-20T14:35:20;97434.22;;;4.30;91.08
19751;BME280;4663;49.120;9.730;2022-11-20T14:37:47;97427.34;;;3.92;91.17
19751;BME280;4663;49.120;9.730;2022-11-20T14:40:35;97436.75;;;4.05;88.69
19751;BME280;4663;49.120;9.730;2022-11-20T14:43:04;97438.31;;;4.07;89.82
19751;BME280;4663;49.120;9.730;2022-11-20T14:45:40;97428.59;;;3.80;91.62
19751;BME280;4663;49.120;9.730;2022-11-20T14:48:09;97435.03;;;3.69;92.78
19751;BME280;4663;49.120;9.730;2022-11-20T14:50:37;97426.63;;;3.55;91.83
19751;BME280;4663;49.120;9.730;2022-11-20T14:53:03;97421.25;;;3.74;89.36
19751;BME280;4663;49.120;9.730;2022-11-20T14:55:36;97418.13;;;3.60;88.50
19751;BME280;4663;49.120;9.730;2022-11-20T14:58:26;97421.81;;;3.23;92.03
19751;BME280;4663;49.120;9.730;2022-11-20T15:00:58;97410.84;;;3.26;90.08
19751;BME280;4663;49.120;9.730;2022-11-20T15:05:57;97405.19;;;2.92;92.02
19751;BME280;4663;49.120;9.730;2022-11-20T15:08:22;97422.97;;;3.02;92.36
19751;BME280;4663;49.120;9.730;2022-11-20T15:10:51;97408.41;;;2.78;93.83
19751;BME280;4663;49.120;9.730;2022-11-20T15:15:54;97404.31;;;2.74;91.34